Página principal
METAR-TAF:

METAR-TAF

Aeroportos :

Kemmerer, Wyoming, Estados Unidos

latitude: 41-49-27N, longitude: 110-33-25W, altura: 2220 m

Observação actual do tempo

O boletim foi feito há 30 minutos, às 10:35 UTC
Vento calmo
Temperatura -8°C
Humidade 73%
Pressão 1013 hPa
Visibilidade: 16.1 km
Céu limpo

METAR: KEMM 121035Z AUTO 00000KT 10SM CLR M08/M12 A2990 RMK AO2

Hora: 04:05 (11:05 UTC)


TAF: em falta

Observações e previsões do tempo de mais de 4000 aeroportos (mensagens METAR e TAF).

As estações disponíveis são os pontos amarelos e vermelhos sobre o mapa.

Mova o rato sobre o mapa para ver o nome da estação.

Depois clique no ponto para visualizar as observações e previsões meteorológicas.

Para alterar o mapa : clique nos botões verdes com uma cruz preta para aumentar o zoom; no botão verde com uma pitada de zoom; ou nas setas verdes para mapas adjacentes.


METAR-TAF: